Time;durP1;ratioP1;P1;durP2;ratioP2;P2;SDS_P1;SDS_P2;PMS_P1;PMS_P2;Temp;Humidity;BMP_temperature;BMP_pressure;BME280_temperature;BME280_humidity;BME280_pressure;Samples;Min_cycle;Max_cycle;Signal;HPM_P1;HPM_P2
2023/10/03 00:00:56;;;;;;;;;;;;;;;12.36;77.27;96110.31;5113657;28;1087;-58
2023/10/03 00:03:23;;;;;;;;;;;;;;;11.94;77.74;96114.28;5113549;28;1044;-58
2023/10/03 00:05:51;;;;;;;;;;;;;;;11.99;77.81;96108.47;5113815;28;976;-58
2023/10/03 00:08:17;;;;;;;;;;;;;;;12.27;77.05;96114.72;5113514;28;1037;-58
2023/10/03 00:10:45;;;;;;;;;;;;;;;12.00;78.12;96118.22;5113553;28;1049;-58
2023/10/03 00:13:12;;;;;;;;;;;;;;;11.97;78.46;96111.31;5113774;28;1045;-58
2023/10/03 00:15:45;;;;;;;;;;;;;;;11.99;78.42;96113.81;5126586;28;1219;-58
2023/10/03 00:18:11;;;;;;;;;;;;;;;11.79;79.11;96113.88;5133937;28;1905;-58
2023/10/03 00:20:37;;;;;;;;;;;;;;;11.68;79.60;96109.50;5134362;28;1064;-58
2023/10/03 00:23:04;;;;;;;;;;;;;;;11.87;78.84;96113.97;5134882;27;1024;-58
2023/10/03 00:25:30;;;;;;;;;;;;;;;11.78;78.81;96114.00;5138142;27;971;-58
2023/10/03 00:27:59;;;;;;;;;;;;;;;11.67;79.60;96115.03;5138042;27;1038;-58
2023/10/03 00:30:26;;;;;;;;;;;;;;;11.65;79.39;96108.97;5138136;27;980;-58
2023/10/03 00:32:52;;;;;;;;;;;;;;;11.66;79.66;96113.31;5138210;27;988;-58
2023/10/03 00:35:22;;;;;;;;;;;;;;;11.67;79.54;96113.19;5137802;27;1092;-58
2023/10/03 00:37:52;;;;;;;;;;;;;;;11.56;79.68;96110.66;5137715;27;1905;-58
2023/10/03 00:40:27;;;;;;;;;;;;;;;11.46;80.00;96116.06;5137879;27;973;-58
2023/10/03 00:42:57;;;;;;;;;;;;;;;11.32;80.34;96117.34;5137712;27;1025;-58
2023/10/03 00:45:30;;;;;;;;;;;;;;;11.29;80.49;96114.94;5137903;27;1091;-58
2023/10/03 00:47:58;;;;;;;;;;;;;;;11.21;81.00;96120.16;5137997;27;960;-58
2023/10/03 00:50:25;;;;;;;;;;;;;;;11.28;80.74;96117.75;5137498;27;1072;-58
2023/10/03 00:52:56;;;;;;;;;;;;;;;11.16;80.84;96118.91;5137669;27;1012;-58
2023/10/03 00:55:26;;;;;;;;;;;;;;;11.07;81.63;96121.41;5137452;27;1040;-58
2023/10/03 00:58:04;;;;;;;;;;;;;;;10.91;82.11;96121.97;5137872;27;1906;-58
2023/10/03 01:00:31;;;;;;;;;;;;;;;10.85;82.60;96119.00;5116984;28;965;-58
2023/10/03 01:02:58;;;;;;;;;;;;;;;10.69;83.51;96114.19;5116945;28;1015;-58
2023/10/03 01:05:24;;;;;;;;;;;;;;;10.68;83.38;96121.38;5116674;28;1021;-58
2023/10/03 01:07:50;;;;;;;;;;;;;;;10.91;82.46;96123.81;5116678;28;1092;-58
2023/10/03 01:10:18;;;;;;;;;;;;;;;10.90;82.37;96127.47;5116529;28;1032;-58
2023/10/03 01:12:48;;;;;;;;;;;;;;;10.88;82.65;96116.06;5116710;28;969;-57
2023/10/03 01:15:22;;;;;;;;;;;;;;;11.00;82.26;96120.28;5116504;28;1239;-56
2023/10/03 01:17:52;;;;;;;;;;;;;;;11.27;81.30;96121.44;5116630;28;1988;-57
2023/10/03 01:20:34;;;;;;;;;;;;;;;11.27;80.98;96119.59;5116481;28;1860;-57
2023/10/03 01:23:06;;;;;;;;;;;;;;;11.12;81.34;96115.66;5116780;28;1131;-57
2023/10/03 01:25:34;;;;;;;;;;;;;;;11.06;81.67;96125.09;5098513;28;962;-57
2023/10/03 01:28:00;;;;;;;;;;;;;;;10.98;81.85;96124.09;5116647;28;1223;-56
2023/10/03 01:30:26;;;;;;;;;;;;;;;10.74;82.80;96120.81;5116208;28;1063;-57
2023/10/03 01:32:54;;;;;;;;;;;;;;;10.86;82.50;96118.03;5116209;28;912;-57
2023/10/03 01:35:22;;;;;;;;;;;;;;;10.77;82.53;96117.00;5115977;28;1076;-57
2023/10/03 01:37:49;;;;;;;;;;;;;;;10.86;82.38;96113.50;5116292;28;1903;-57
2023/10/03 01:40:16;;;;;;;;;;;;;;;10.88;82.75;96116.06;5116048;28;1056;-57
2023/10/03 01:42:45;;;;;;;;;;;;;;;10.87;82.76;96119.69;5116046;28;1180;-56
2023/10/03 01:45:22;;;;;;;;;;;;;;;10.86;82.21;96113.50;5115909;28;1048;-57
2023/10/03 01:47:50;;;;;;;;;;;;;;;10.65;82.88;96112.78;5115801;28;1041;-57
2023/10/03 01:50:19;;;;;;;;;;;;;;;10.52;83.30;96115.72;5115795;28;1032;-57
2023/10/03 01:52:46;;;;;;;;;;;;;;;10.51;83.42;96111.38;5116155;28;1012;-57
2023/10/03 01:55:12;;;;;;;;;;;;;;;10.55;83.19;96108.25;5116018;28;1004;-57
2023/10/03 01:57:39;;;;;;;;;;;;;;;10.49;83.37;96107.94;5116013;28;1990;-57
2023/10/03 02:00:18;;;;;;;;;;;;;;;10.32;83.94;96113.00;5133583;27;1161;-57
2023/10/03 02:02:44;;;;;;;;;;;;;;;10.46;83.59;96113.59;5136179;27;1045;-57
2023/10/03 02:05:12;;;;;;;;;;;;;;;10.55;83.33;96108.25;5136324;27;953;-57
2023/10/03 02:07:39;;;;;;;;;;;;;;;10.76;81.90;96104.63;5136250;27;1000;-57
2023/10/03 02:10:05;;;;;;;;;;;;;;;10.67;82.31;96108.97;5136066;27;1056;-57
2023/10/03 02:12:31;;;;;;;;;;;;;;;10.37;82.87;96111.72;5136191;27;976;-55
2023/10/03 02:14:57;;;;;;;;;;;;;;;10.17;84.18;96103.63;5135872;27;1131;-57
2023/10/03 02:17:23;;;;;;;;;;;;;;;10.37;84.30;96103.72;5135981;27;1986;-57
2023/10/03 02:19:49;;;;;;;;;;;;;;;10.31;84.24;96097.91;5135847;27;1036;-57
2023/10/03 02:22:18;;;;;;;;;;;;;;;10.38;83.83;96106.25;5136047;27;973;-57
2023/10/03 02:24:44;;;;;;;;;;;;;;;10.45;83.63;96109.22;5135817;27;1024;-57
2023/10/03 02:27:11;;;;;;;;;;;;;;;10.44;83.29;96107.53;5135870;27;1029;-57
2023/10/03 02:29:38;;;;;;;;;;;;;;;10.28;83.32;96098.19;5135625;27;970;-57
2023/10/03 02:32:07;;;;;;;;;;;;;;;10.20;83.73;96095.31;5135578;27;1021;-57
2023/10/03 02:34:33;;;;;;;;;;;;;;;10.31;83.48;96091.75;5135458;27;1103;-57
2023/10/03 02:37:00;;;;;;;;;;;;;;;10.34;83.12;96096.81;5135550;27;1998;-57
2023/10/03 02:39:35;;;;;;;;;;;;;;;10.37;82.88;96090.34;5135646;27;1056;-56
2023/10/03 02:42:04;;;;;;;;;;;;;;;10.12;83.80;96098.66;5135945;27;1044;-56
2023/10/03 02:44:31;;;;;;;;;;;;;;;10.09;84.18;96095.41;5135600;27;991;-56
2023/10/03 02:46:58;;;;;;;;;;;;;;;10.26;83.38;96099.28;5134817;27;1032;-57
2023/10/03 02:49:24;;;;;;;;;;;;;;;10.17;83.52;96100.97;5135384;27;973;-57
2023/10/03 02:51:50;;;;;;;;;;;;;;;10.05;83.92;96096.69;5135470;27;953;-57
2023/10/03 02:54:16;;;;;;;;;;;;;;;10.17;83.64;96098.28;5135463;27;973;-57
2023/10/03 02:56:42;;;;;;;;;;;;;;;10.22;83.34;96100.53;5135003;27;1905;-57
2023/10/03 02:59:08;;;;;;;;;;;;;;;9.93;84.18;96119.97;5125197;27;1157;-57
2023/10/03 03:01:37;;;;;;;;;;;;;;;9.91;84.23;96114.75;5115025;28;995;-57
2023/10/03 03:04:04;;;;;;;;;;;;;;;9.89;84.79;96107.88;5114730;28;1041;-57
2023/10/03 03:06:31;;;;;;;;;;;;;;;9.92;84.39;96116.47;5114655;28;945;-57
2023/10/03 03:08:57;;;;;;;;;;;;;;;9.94;84.39;96111.84;5114374;28;1067;-57
2023/10/03 03:11:23;;;;;;;;;;;;;;;10.00;83.71;96114.94;5114524;28;1033;-57
2023/10/03 03:13:49;;;;;;;;;;;;;;;9.97;83.62;96118.72;5114612;28;990;-57
2023/10/03 03:16:15;;;;;;;;;;;;;;;9.93;83.60;96126.16;5114006;28;1981;-57
2023/10/03 03:18:41;;;;;;;;;;;;;;;10.04;83.03;96122.56;5114503;28;1034;-57
2023/10/03 03:21:14;;;;;;;;;;;;;;;9.80;83.60;96114.00;5114199;28;985;-57
2023/10/03 03:23:49;;;;;;;;;;;;;;;9.65;84.67;96118.84;5114128;28;1096;-58
2023/10/03 03:26:17;;;;;;;;;;;;;;;9.76;84.27;96116.94;5114351;28;1037;-57
2023/10/03 03:28:44;;;;;;;;;;;;;;;9.78;84.41;96111.47;5114271;28;1041;-58
2023/10/03 03:31:31;;;;;;;;;;;;;;;9.58;84.39;96111.38;5096183;28;957;-58
2023/10/03 03:33:58;;;;;;;;;;;;;;;9.64;84.45;96114.50;5114076;28;1044;-58
2023/10/03 03:36:29;;;;;;;;;;;;;;;9.67;83.43;96119.56;5113755;28;1910;-58
2023/10/03 03:38:58;;;;;;;;;;;;;;;9.67;83.62;96122.22;5114134;28;1033;-58
2023/10/03 03:41:24;;;;;;;;;;;;;;;9.71;83.42;96118.31;5113962;28;988;-58
2023/10/03 03:43:50;;;;;;;;;;;;;;;9.55;83.92;96124.13;5113869;28;928;-59
2023/10/03 03:46:19;;;;;;;;;;;;;;;9.54;83.81;96125.09;5114061;28;1004;-60
2023/10/03 03:48:46;;;;;;;;;;;;;;;9.37;84.94;96129.19;5113782;28;1095;-60
2023/10/03 03:51:14;;;;;;;;;;;;;;;9.52;84.32;96130.59;5113874;28;1079;-59
2023/10/03 03:53:42;;;;;;;;;;;;;;;9.58;84.22;96127.38;5113992;28;966;-58
2023/10/03 03:56:08;;;;;;;;;;;;;;;9.60;83.97;96134.41;5113910;28;1992;-59
2023/10/03 03:58:36;;;;;;;;;;;;;;;9.56;83.86;96132.00;5115375;28;1224;-58
2023/10/03 04:01:07;;;;;;;;;;;;;;;9.54;83.72;96125.97;5118050;28;1105;-58
2023/10/03 04:03:35;;;;;;;;;;;;;;;9.31;84.21;96133.22;5117860;28;1037;-58
2023/10/03 04:06:01;;;;;;;;;;;;;;;9.14;85.11;96141.78;5118117;28;1108;-59
2023/10/03 04:08:27;;;;;;;;;;;;;;;9.13;85.41;96138.28;5118003;28;1052;-59
2023/10/03 04:10:53;;;;;;;;;;;;;;;9.15;84.78;96136.34;5117813;28;1033;-59
2023/10/03 04:13:21;;;;;;;;;;;;;;;9.05;85.53;96139.88;5117704;28;1005;-59
2023/10/03 04:15:50;;;;;;;;;;;;;;;9.04;85.45;96132.88;5131981;27;1242;-60
2023/10/03 04:18:16;;;;;;;;;;;;;;;9.00;85.79;96137.63;5138099;27;1910;-59
2023/10/03 04:20:46;;;;;;;;;;;;;;;9.07;85.91;96136.16;5138160;27;1036;-59
2023/10/03 04:23:14;;;;;;;;;;;;;;;9.23;85.80;96135.69;5120019;27;984;-59
2023/10/03 04:25:40;;;;;;;;;;;;;;;9.28;85.46;96140.66;5119950;27;1063;-59
2023/10/03 04:28:08;;;;;;;;;;;;;;;9.34;85.15;96140.13;5138008;27;1044;-59
2023/10/03 04:30:34;;;;;;;;;;;;;;;9.43;84.62;96139.38;5137864;27;1032;-58
2023/10/03 04:33:00;;;;;;;;;;;;;;;9.38;84.49;96145.06;5137835;27;1056;-59
2023/10/03 04:35:26;;;;;;;;;;;;;;;9.32;84.49;96148.28;5137833;27;1028;-59
2023/10/03 04:37:52;;;;;;;;;;;;;;;9.41;84.24;96141.31;5138016;27;1913;-58
2023/10/03 04:40:22;;;;;;;;;;;;;;;9.42;84.45;96142.16;5137908;27;1021;-58
2023/10/03 04:42:52;;;;;;;;;;;;;;;9.55;83.43;96146.31;5137863;27;1130;-60
2023/10/03 04:45:19;;;;;;;;;;;;;;;9.45;83.96;96153.44;5137522;27;1045;-61
2023/10/03 04:47:47;;;;;;;;;;;;;;;9.41;83.73;96145.78;5137662;27;1107;-60
2023/10/03 04:50:17;;;;;;;;;;;;;;;9.33;83.48;96149.09;5137707;27;1024;-60
2023/10/03 04:52:47;;;;;;;;;;;;;;;9.32;83.98;96152.78;5119570;27;996;-60
2023/10/03 04:55:17;;;;;;;;;;;;;;;9.48;84.12;96158.50;5137817;27;965;-59
2023/10/03 04:57:47;;;;;;;;;;;;;;;9.54;83.86;96158.00;5137746;27;1995;-60
2023/10/03 05:00:15;;;;;;;;;;;;;;;9.33;84.69;96157.13;5118560;27;1161;-60
2023/10/03 05:02:43;;;;;;;;;;;;;;;9.55;83.78;96157.00;5117124;28;976;-58
2023/10/03 05:05:10;;;;;;;;;;;;;;;9.71;83.68;96155.69;5117102;28;1019;-59
2023/10/03 05:07:36;;;;;;;;;;;;;;;9.80;83.69;96159.41;5116918;28;1003;-58
2023/10/03 05:10:03;;;;;;;;;;;;;;;9.80;83.83;96157.56;5116471;28;1035;-58
2023/10/03 05:12:29;;;;;;;;;;;;;;;9.84;84.00;96158.16;5116625;28;981;-58
2023/10/03 05:14:55;;;;;;;;;;;;;;;9.89;83.68;96158.63;5116352;28;1227;-58
2023/10/03 05:17:21;;;;;;;;;;;;;;;10.11;83.05;96160.25;5116628;28;1996;-58
2023/10/03 05:19:47;;;;;;;;;;;;;;;10.19;83.07;96167.59;5116790;28;1044;-58
2023/10/03 05:22:13;;;;;;;;;;;;;;;10.19;83.68;96167.59;5116535;28;1007;-58
2023/10/03 05:24:39;;;;;;;;;;;;;;;10.17;83.91;96167.78;5116505;28;965;-58
2023/10/03 05:27:07;;;;;;;;;;;;;;;10.32;84.79;96173.59;5116265;28;1032;-58
2023/10/03 05:29:33;;;;;;;;;;;;;;;10.50;84.44;96165.81;5116183;28;955;-58
2023/10/03 05:32:00;;;;;;;;;;;;;;;10.55;84.52;96172.44;5116509;28;1002;-58
2023/10/03 05:34:29;;;;;;;;;;;;;;;10.62;85.65;96178.06;5116314;28;988;-58
2023/10/03 05:36:55;;;;;;;;;;;;;;;11.16;82.92;96167.06;5116240;28;1913;-58
2023/10/03 05:39:22;;;;;;;;;;;;;;;11.65;80.73;96178.63;5116298;28;1064;-58
2023/10/03 05:41:48;;;;;;;;;;;;;;;12.21;78.29;96174.28;5115984;28;962;-58
2023/10/03 05:44:18;;;;;;;;;;;;;;;12.85;75.96;96172.59;5116172;28;984;-58
2023/10/03 05:46:44;;;;;;;;;;;;;;;14.40;68.95;96181.16;5115956;28;1041;-58
2023/10/03 05:49:10;;;;;;;;;;;;;;;15.98;62.01;96176.06;5097975;28;970;-58
2023/10/03 05:51:36;;;;;;;;;;;;;;;16.76;58.33;96182.63;5115866;28;1087;-60
2023/10/03 05:54:05;;;;;;;;;;;;;;;17.22;55.91;96190.06;5115803;28;1040;-60
2023/10/03 05:56:31;;;;;;;;;;;;;;;18.53;51.68;96198.03;5116123;28;1937;-60
2023/10/03 05:58:59;;;;;;;;;;;;;;;18.98;50.37;96202.63;5115909;28;1216;-60
2023/10/03 06:01:25;;;;;;;;;;;;;;;19.56;48.69;96202.69;5115615;28;1092;-61
2023/10/03 06:03:51;;;;;;;;;;;;;;;20.19;46.90;96217.38;5115727;28;965;-59
2023/10/03 06:06:17;;;;;;;;;;;;;;;19.90;46.67;96221.06;5115851;28;989;-59
2023/10/03 06:08:48;;;;;;;;;;;;;;;19.88;47.76;96213.13;5115824;28;988;-59
2023/10/03 06:11:17;;;;;;;;;;;;;;;19.43;48.19;96206.97;5115428;28;1068;-59
2023/10/03 06:13:44;;;;;;;;;;;;;;;18.20;51.55;96204.78;5115702;28;970;-59
2023/10/03 06:16:12;;;;;;;;;;;;;;;17.26;55.49;96197.63;5132898;27;1095;-59
2023/10/03 06:18:40;;;;;;;;;;;;;;;16.70;57.54;96194.16;5135901;27;1084;-57
2023/10/03 06:21:07;;;;;;;;;;;;;;;16.47;57.82;96202.13;5135047;27;1065;-57
2023/10/03 06:23:34;;;;;;;;;;;;;;;16.30;58.28;96202.16;5135737;27;1011;-59
2023/10/03 06:26:00;;;;;;;;;;;;;;;16.03;60.09;96197.13;5135702;27;1040;-59
2023/10/03 06:28:28;;;;;;;;;;;;;;;15.59;61.56;96200.94;5135662;27;1029;-59
2023/10/03 06:30:55;;;;;;;;;;;;;;;15.52;62.08;96202.66;5135667;27;1172;-59
2023/10/03 06:33:21;;;;;;;;;;;;;;;15.61;61.57;96202.50;5135509;27;1103;-59
2023/10/03 06:35:52;;;;;;;;;;;;;;;15.69;62.84;96204.34;5135661;27;984;-59
2023/10/03 06:38:23;;;;;;;;;;;;;;;15.74;61.86;96198.47;5135278;27;1981;-59
2023/10/03 06:40:49;;;;;;;;;;;;;;;15.87;61.25;96206.91;5135822;27;1048;-58
2023/10/03 06:43:17;;;;;;;;;;;;;;;15.96;61.17;96202.38;5135683;27;1060;-58
2023/10/03 06:45:43;;;;;;;;;;;;;;;16.04;61.12;96196.94;5135696;27;1049;-57
2023/10/03 06:48:10;;;;;;;;;;;;;;;16.33;60.05;96195.56;5135481;27;971;-57
2023/10/03 06:50:37;;;;;;;;;;;;;;;16.26;60.26;96205.34;5135343;27;950;-60
2023/10/03 06:53:03;;;;;;;;;;;;;;;16.32;59.17;96202.00;5135487;27;967;-58
2023/10/03 06:55:29;;;;;;;;;;;;;;;16.57;59.84;96208.19;5135278;27;993;-57
2023/10/03 06:57:55;;;;;;;;;;;;;;;16.71;58.79;96201.22;5133341;27;2546;-58
2023/10/03 07:00:22;;;;;;;;;;;;;;;16.73;59.70;96202.75;5135139;27;1208;-58
2023/10/03 07:02:48;;;;;;;;;;;;;;;16.49;59.84;96195.53;5135261;27;998;-59
2023/10/03 07:05:14;;;;;;;;;;;;;;;16.59;59.87;96201.56;5135200;27;989;-59
2023/10/03 07:07:40;;;;;;;;;;;;;;;16.66;59.76;96204.44;5134940;27;1029;-59
2023/10/03 07:10:07;;;;;;;;;;;;;;;17.01;59.30;96196.91;5134916;27;1039;-58
2023/10/03 07:12:34;;;;;;;;;;;;;;;17.06;58.97;96199.94;5119351;27;2576;-59
2023/10/03 07:15:00;;;;;;;;;;;;;;;17.38;58.48;96200.78;5114055;28;1220;-59
2023/10/03 07:17:26;;;;;;;;;;;;;;;17.47;57.63;96202.44;5114231;28;2000;-59
2023/10/03 07:19:52;;;;;;;;;;;;;;;17.65;56.55;96212.13;5114198;28;1056;-58
2023/10/03 07:22:19;;;;;;;;;;;;;;;17.83;56.75;96206.38;5113993;28;1111;-59
2023/10/03 07:24:45;;;;;;;;;;;;;;;17.80;55.69;96209.47;5114447;28;1041;-59
2023/10/03 07:27:14;;;;;;;;;;;;;;;18.16;55.97;96200.75;5114181;28;1040;-59
2023/10/03 07:29:42;;;;;;;;;;;;;;;18.39;54.53;96193.44;5114028;28;1134;-59
2023/10/03 07:32:13;;;;;;;;;;;;;;;18.73;53.87;96198.31;5113886;28;1104;-59
2023/10/03 07:34:45;;;;;;;;;;;;;;;18.41;54.54;96193.25;5114309;28;1055;-60
2023/10/03 07:37:12;;;;;;;;;;;;;;;18.68;54.76;96189.06;5114089;28;1910;-60
2023/10/03 07:39:39;;;;;;;;;;;;;;;18.83;54.96;96184.50;5113908;28;1099;-58
2023/10/03 07:42:05;;;;;;;;;;;;;;;18.88;52.97;96197.50;5113918;28;1095;-58
2023/10/03 07:44:32;;;;;;;;;;;;;;;18.86;53.74;96188.72;5113897;28;1039;-58
2023/10/03 07:46:58;;;;;;;;;;;;;;;19.13;53.77;96189.91;5113880;28;913;-59
2023/10/03 07:49:24;;;;;;;;;;;;;;;19.10;53.18;96188.44;5113675;28;1026;-58
2023/10/03 07:51:53;;;;;;;;;;;;;;;19.29;52.62;96188.84;5114015;28;1001;-56
2023/10/03 07:54:20;;;;;;;;;;;;;;;19.65;52.24;96186.13;5113990;28;956;-57
2023/10/03 07:56:48;;;;;;;;;;;;;;;19.86;51.38;96193.47;5113646;28;1982;-57
2023/10/03 07:59:14;;;;;;;;;;;;;;;19.78;52.75;96184.63;5124118;28;1154;-57
2023/10/03 08:01:40;;;;;;;;;;;;;;;19.95;51.17;96186.03;5134525;28;979;-57
2023/10/03 08:04:12;;;;;;;;;;;;;;;19.83;52.01;96183.00;5134083;28;992;-57
2023/10/03 08:06:39;;;;;;;;;;;;;;;20.17;51.25;96192.28;5133517;28;1119;-58
2023/10/03 08:09:06;;;;;;;;;;;;;;;20.37;50.82;96184.28;5134181;28;1103;-57
2023/10/03 08:11:32;;;;;;;;;;;;;;;20.53;50.76;96179.63;5134072;28;1092;-58
2023/10/03 08:13:59;;;;;;;;;;;;;;;20.32;49.99;96185.91;5134171;28;985;-57
2023/10/03 08:16:25;;;;;;;;;;;;;;;20.27;49.75;96192.78;5133759;28;1918;-58
2023/10/03 08:19:01;;;;;;;;;;;;;;;20.35;50.43;96183.66;5134100;28;1012;-58
2023/10/03 08:21:28;;;;;;;;;;;;;;;20.52;50.30;96177.94;5134341;28;1059;-58
2023/10/03 08:23:54;;;;;;;;;;;;;;;20.58;49.55;96171.69;5134015;28;1108;-58
2023/10/03 08:26:21;;;;;;;;;;;;;;;20.57;50.55;96170.84;5134009;28;1003;-57
2023/10/03 08:28:59;;;;;;;;;;;;;;;20.74;49.69;96171.41;5134234;28;1035;-57
2023/10/03 08:31:28;;;;;;;;;;;;;;;20.93;49.48;96166.31;5134132;28;933;-57
2023/10/03 08:33:57;;;;;;;;;;;;;;;20.97;49.61;96173.00;5134212;28;1041;-58
2023/10/03 08:36:27;;;;;;;;;;;;;;;21.05;49.75;96167.41;5133976;28;1992;-58
2023/10/03 08:39:04;;;;;;;;;;;;;;;21.15;49.54;96173.31;5134045;28;1003;-58
2023/10/03 08:41:36;;;;;;;;;;;;;;;21.36;48.46;96175.06;5134109;28;1067;-57
2023/10/03 08:44:05;;;;;;;;;;;;;;;21.50;48.43;96167.81;5134944;27;977;-58
2023/10/03 08:46:36;;;;;;;;;;;;;;;21.60;47.51;96170.97;5137890;27;1032;-58
2023/10/03 08:49:07;;;;;;;;;;;;;;;21.75;46.03;96172.69;5119861;27;960;-57
2023/10/03 08:51:35;;;;;;;;;;;;;;;21.93;48.10;96167.50;5137917;27;969;-58
2023/10/03 08:54:10;;;;;;;;;;;;;;;22.07;47.03;96173.78;5137907;27;973;-57
2023/10/03 08:56:39;;;;;;;;;;;;;;;22.06;46.86;96171.25;5137539;27;1918;-57
2023/10/03 08:59:09;;;;;;;;;;;;;;;22.14;47.00;96169.19;5128266;27;1212;-58
2023/10/03 09:01:43;;;;;;;;;;;;;;;22.22;45.89;96174.41;5117024;28;1004;-58
2023/10/03 09:04:15;;;;;;;;;;;;;;;22.46;45.52;96158.53;5116995;28;1020;-58
2023/10/03 09:06:45;;;;;;;;;;;;;;;22.25;45.77;96159.56;5117072;28;982;-58
2023/10/03 09:09:16;;;;;;;;;;;;;;;22.05;46.66;96158.69;5116970;28;1041;-58
2023/10/03 09:11:43;;;;;;;;;;;;;;;22.13;46.49;96161.22;5117056;28;1052;-58
2023/10/03 09:14:31;;;;;;;;;;;;;;;22.33;47.36;96155.78;5116545;28;1235;-57
2023/10/03 09:16:59;;;;;;;;;;;;;;;22.58;46.95;96150.53;5116814;28;1910;-56
2023/10/03 09:19:41;;;;;;;;;;;;;;;22.69;45.01;96159.91;5098283;28;1000;-56
2023/10/03 09:22:08;;;;;;;;;;;;;;;22.77;45.84;96154.25;5116526;28;1040;-56
2023/10/03 09:24:43;;;;;;;;;;;;;;;22.63;45.43;96152.59;5116649;28;1049;-56
2023/10/03 09:27:10;;;;;;;;;;;;;;;22.86;45.60;96146.69;5116700;28;957;-56
2023/10/03 09:29:36;;;;;;;;;;;;;;;22.81;45.31;96141.88;5116356;28;1012;-56
2023/10/03 09:32:16;;;;;;;;;;;;;;;22.92;44.84;96140.38;5116245;28;1024;-56
2023/10/03 09:34:45;;;;;;;;;;;;;;;22.84;44.67;96132.41;5116597;28;1049;-57
2023/10/03 09:37:11;;;;;;;;;;;;;;;22.94;44.94;96141.00;5114627;28;2559;-56
2023/10/03 09:39:50;;;;;;;;;;;;;;;22.99;45.14;96138.44;5116093;28;1043;-56
2023/10/03 09:42:16;;;;;;;;;;;;;;;23.03;44.36;96136.13;5116257;28;1041;-56
2023/10/03 09:44:43;;;;;;;;;;;;;;;22.79;43.81;96139.34;5116300;28;1012;-57
2023/10/03 09:47:09;;;;;;;;;;;;;;;22.19;44.04;96131.22;5116049;28;1033;-55
2023/10/03 09:49:38;;;;;;;;;;;;;;;22.27;46.00;96122.06;5115937;28;1095;-56
2023/10/03 09:52:22;;;;;;;;;;;;;;;22.33;44.35;96125.81;5115848;28;1037;-56
2023/10/03 09:54:59;;;;;;;;;;;;;;;22.24;44.21;96125.16;5115551;28;1024;-56
2023/10/03 09:57:28;;;;;;;;;;;;;;;22.44;45.19;96108.00;5115159;28;1968;-56
2023/10/03 09:59:55;;;;;;;;;;;;;;;22.89;45.29;96108.09;5115616;28;1161;-56
2023/10/03 10:02:31;;;;;;;;;;;;;;;23.24;43.53;96110.47;5115948;28;968;-55
2023/10/03 10:04:59;;;;;;;;;;;;;;;23.24;43.23;96103.16;5115924;28;1001;-55
2023/10/03 10:07:35;;;;;;;;;;;;;;;23.15;43.88;96097.09;5115430;28;992;-55
2023/10/03 10:10:09;;;;;;;;;;;;;;;23.23;43.48;96095.19;5115757;28;981;-55
2023/10/03 10:12:39;;;;;;;;;;;;;;;22.97;41.72;96094.19;5115709;28;1037;-55
2023/10/03 10:17:43;;;;;;;;;;;;;;;22.89;43.91;96081.66;5135949;27;1913;-55
2023/10/03 10:20:13;;;;;;;;;;;;;;;23.28;42.89;96087.19;5121871;27;2754;-55
2023/10/03 10:25:42;;;;;;;;;;;;;;;23.60;41.12;96090.78;5117238;27;2495;-55
2023/10/03 10:28:10;;;;;;;;;;;;;;;23.64;42.30;96078.34;5115225;28;1135;-55
2023/10/03 10:30:38;;;;;;;;;;;;;;;23.59;42.38;96078.16;5115454;28;1044;-54
2023/10/03 10:33:20;;;;;;;;;;;;;;;23.54;41.80;96078.84;5115399;28;983;-54
2023/10/03 10:35:59;;;;;;;;;;;;;;;23.48;38.93;96074.22;5115341;28;996;-56
2023/10/03 10:38:49;;;;;;;;;;;;;;;23.38;40.80;96076.63;5115230;28;1911;-56
2023/10/03 10:41:17;;;;;;;;;;;;;;;23.68;41.55;96057.72;5102669;28;1660;-55
2023/10/03 10:44:05;;;;;;;;;;;;;;;23.71;42.02;96065.50;5114932;28;1119;-55
2023/10/03 10:46:36;;;;;;;;;;;;;;;23.62;40.68;96064.09;5096843;28;1032;-56
2023/10/03 10:49:06;;;;;;;;;;;;;;;23.68;41.51;96057.72;5115152;28;1037;-55
2023/10/03 10:51:36;;;;;;;;;;;;;;;23.75;41.53;96044.00;5114631;28;921;-56
2023/10/03 10:54:04;;;;;;;;;;;;;;;23.80;41.54;96044.22;5114943;28;941;-56
2023/10/03 10:56:32;;;;;;;;;;;;;;;24.00;40.70;96048.66;5114845;28;1914;-56
2023/10/03 10:59:07;;;;;;;;;;;;;;;24.22;40.89;96039.00;5104674;27;1170;-56
2023/10/03 11:01:37;;;;;;;;;;;;;;;24.17;41.28;96030.66;5135025;27;1048;-56
2023/10/03 11:04:03;;;;;;;;;;;;;;;23.89;41.46;96029.22;5116791;27;1024;-56
2023/10/03 11:06:30;;;;;;;;;;;;;;;23.83;41.43;96027.41;5134874;27;944;-56
2023/10/03 11:08:55;;;;;;;;;;;;;;;24.02;41.22;96019.22;5135203;27;1119;-56
2023/10/03 11:11:32;;;;;;;;;;;;;;;24.22;41.55;96010.84;5134882;27;1036;-56
2023/10/03 11:13:58;;;;;;;;;;;;;;;24.27;40.88;96013.75;5135257;27;918;-56
2023/10/03 11:16:25;;;;;;;;;;;;;;;24.33;41.05;96008.19;5134449;27;1913;-56
2023/10/03 11:18:54;;;;;;;;;;;;;;;24.13;40.81;95999.38;5135042;27;1039;-56
2023/10/03 11:21:20;;;;;;;;;;;;;;;23.90;40.08;96000.88;5135046;27;1279;-55
2023/10/03 11:24:05;;;;;;;;;;;;;;;23.96;40.75;95993.69;5133957;27;4344;-54
2023/10/03 11:26:48;;;;;;;;;;;;;;;23.92;40.44;95996.03;5134600;27;1028;-54
2023/10/03 11:29:15;;;;;;;;;;;;;;;23.88;41.59;95996.69;5134567;27;1012;-56
2023/10/03 11:31:42;;;;;;;;;;;;;;;23.98;41.67;95991.56;5134855;27;992;-55
2023/10/03 11:34:08;;;;;;;;;;;;;;;23.96;41.84;95991.78;5134891;27;964;-56
2023/10/03 11:36:44;;;;;;;;;;;;;;;23.86;40.53;95994.16;5134508;27;1988;-56
2023/10/03 11:39:11;;;;;;;;;;;;;;;23.82;41.35;95986.66;5134686;27;1044;-56
2023/10/03 11:41:39;;;;;;;;;;;;;;;23.84;41.34;95976.34;5134377;27;961;-56
2023/10/03 11:44:21;;;;;;;;;;;;;;;23.90;41.74;95964.53;5134760;27;986;-56
2023/10/03 11:46:48;;;;;;;;;;;;;;;23.87;41.41;95963.09;5134556;27;1047;-56
2023/10/03 11:49:15;;;;;;;;;;;;;;;23.91;40.85;95966.19;5134281;27;1048;-56
2023/10/03 11:51:44;;;;;;;;;;;;;;;23.94;40.36;95963.88;5134338;27;1048;-56
2023/10/03 11:54:11;;;;;;;;;;;;;;;23.68;41.13;95964.09;5134161;27;1095;-56
2023/10/03 11:56:41;;;;;;;;;;;;;;;23.65;41.19;95961.78;5134256;27;1914;-56
2023/10/03 11:59:07;;;;;;;;;;;;;;;23.72;41.14;95952.47;5134187;28;1205;-56
2023/10/03 12:01:35;;;;;;;;;;;;;;;23.72;41.67;95947.03;5134476;28;992;-56
2023/10/03 12:04:01;;;;;;;;;;;;;;;23.80;41.19;95945.09;5134197;28;1047;-56
2023/10/03 12:06:27;;;;;;;;;;;;;;;23.81;40.81;95947.59;5134080;28;1052;-56
2023/10/03 12:08:54;;;;;;;;;;;;;;;23.75;41.43;95943.00;5134190;28;1048;-56
2023/10/03 12:11:21;;;;;;;;;;;;;;;23.85;41.33;95943.38;5134391;28;1111;-56
2023/10/03 12:13:47;;;;;;;;;;;;;;;23.91;40.32;95936.16;5134291;28;1074;-56
2023/10/03 12:16:13;;;;;;;;;;;;;;;23.99;41.17;95933.13;5133875;28;1079;-56
2023/10/03 12:18:38;;;;;;;;;;;;;;;23.89;39.76;95933.66;5134227;27;1913;-56
2023/10/03 12:21:05;;;;;;;;;;;;;;;23.75;39.73;95926.59;5138516;27;1052;-56
2023/10/03 12:23:31;;;;;;;;;;;;;;;23.83;41.11;95929.09;5138138;27;1118;-56
2023/10/03 12:25:58;;;;;;;;;;;;;;;23.86;40.74;95923.16;5138433;27;951;-56
2023/10/03 12:28:23;;;;;;;;;;;;;;;23.85;39.78;95926.97;5138362;27;1047;-56
2023/10/03 12:30:53;;;;;;;;;;;;;;;23.84;40.78;95919.00;5138419;27;1051;-56
2023/10/03 12:33:19;;;;;;;;;;;;;;;23.89;41.21;95911.81;5138055;27;1030;-56
2023/10/03 12:35:46;;;;;;;;;;;;;;;23.81;40.06;95914.84;5138234;27;1053;-56
2023/10/03 12:38:12;;;;;;;;;;;;;;;23.83;40.48;95912.72;5137967;27;1909;-56
2023/10/03 12:40:38;;;;;;;;;;;;;;;23.75;40.02;95911.09;5138174;27;1000;-56
2023/10/03 12:43:04;;;;;;;;;;;;;;;23.88;40.38;95906.56;5138144;27;1168;-56
2023/10/03 12:45:29;;;;;;;;;;;;;;;24.05;40.75;95913.09;5137881;27;1024;-56
2023/10/03 12:47:56;;;;;;;;;;;;;;;24.14;40.02;95899.97;5138076;27;1076;-56
2023/10/03 12:50:27;;;;;;;;;;;;;;;24.24;38.68;95903.00;5137927;27;976;-56
2023/10/03 12:52:58;;;;;;;;;;;;;;;24.08;38.69;95903.63;5119407;27;1037;-56
2023/10/03 12:55:27;;;;;;;;;;;;;;;23.97;38.81;95911.50;5137690;27;1000;-56
2023/10/03 12:57:55;;;;;;;;;;;;;;;23.92;38.33;95899.59;5137466;27;1984;-56
2023/10/03 13:00:23;;;;;;;;;;;;;;;23.99;38.26;95902.25;5137343;27;1208;-56
2023/10/03 13:02:50;;;;;;;;;;;;;;;24.00;39.24;95890.25;5137532;27;957;-57
2023/10/03 13:05:17;;;;;;;;;;;;;;;23.97;39.65;95886.09;5137273;27;986;-57
2023/10/03 13:07:45;;;;;;;;;;;;;;;23.95;39.49;95888.22;5137366;27;1091;-56
2023/10/03 13:10:12;;;;;;;;;;;;;;;23.97;39.92;95886.09;5137197;27;1107;-56
2023/10/03 13:12:41;;;;;;;;;;;;;;;23.90;39.29;95888.06;5137607;27;1095;-56